Time;durP1;ratioP1;P1;durP2;ratioP2;P2;SDS_P1;SDS_P2;PMS_P1;PMS_P2;Temp;Humidity;BMP_temperature;BMP_pressure;BME280_temperature;BME280_humidity;BME280_pressure;Samples;Min_cycle;Max_cycle;Signal;HPM_P1;HPM_P2
2024/04/01 00:00:01;;;;;;;10.48;3.03;;;16.80;83.20;;;;;;5046928;28;20040;-59
2024/04/01 00:02:27;;;;;;;11.60;3.15;;;16.80;83.20;;;;;;5028823;28;20049;-58
2024/04/01 00:04:54;;;;;;;8.80;2.67;;;16.80;83.30;;;;;;5045229;28;20109;-58
2024/04/01 00:07:19;;;;;;;14.02;2.83;;;16.70;83.30;;;;;;5045534;28;20037;-58
2024/04/01 00:09:46;;;;;;;13.80;2.78;;;16.70;83.30;;;;;;5045484;28;20030;-59
2024/04/01 00:12:12;;;;;;;13.90;2.97;;;16.70;83.60;;;;;;5045398;28;20092;-58
2024/04/01 00:14:38;;;;;;;13.80;3.00;;;16.70;83.40;;;;;;5045261;28;20025;-58
2024/04/01 00:17:04;;;;;;;13.02;3.20;;;16.70;83.50;;;;;;5045507;28;20093;-59
2024/04/01 00:19:29;;;;;;;10.80;2.88;;;16.60;83.50;;;;;;5045037;28;20048;-58
2024/04/01 00:21:55;;;;;;;11.05;3.10;;;16.60;83.50;;;;;;5045101;28;20097;-58
2024/04/01 00:24:20;;;;;;;12.57;2.72;;;16.60;83.50;;;;;;5045150;28;20087;-58
2024/04/01 00:26:46;;;;;;;11.68;3.00;;;16.60;83.60;;;;;;5046253;28;20025;-58
2024/04/01 00:29:12;;;;;;;8.35;2.78;;;16.60;83.60;;;;;;5045111;28;20026;-59
2024/04/01 00:31:37;;;;;;;10.18;2.95;;;16.60;83.60;;;;;;5044895;28;20037;-58
2024/04/01 00:34:03;;;;;;;13.43;2.90;;;16.60;83.70;;;;;;5044883;28;20053;-58
2024/04/01 00:36:28;;;;;;;8.07;2.70;;;16.60;83.80;;;;;;5044715;28;20040;-58
2024/04/01 00:38:55;;;;;;;10.20;2.70;;;16.50;83.70;;;;;;5044748;28;20463;-58
2024/04/01 00:41:22;;;;;;;7.22;2.47;;;16.50;83.70;;;;;;5044599;28;20034;-58
2024/04/01 00:43:48;;;;;;;11.52;2.95;;;16.50;83.60;;;;;;5044936;28;20449;-58
2024/04/01 00:46:14;;;;;;;10.63;2.67;;;16.50;83.70;;;;;;5044647;28;20064;-58
2024/04/01 00:48:39;;;;;;;11.70;2.90;;;16.50;83.80;;;;;;5044494;28;20048;-58
2024/04/01 00:51:05;;;;;;;11.30;3.17;;;16.50;83.80;;;;;;5044591;28;20038;-59
2024/04/01 00:53:30;;;;;;;9.93;2.70;;;16.50;83.80;;;;;;5027983;28;20495;-59
2024/04/01 00:55:56;;;;;;;12.20;3.00;;;16.50;83.90;;;;;;5027846;28;20029;-58
2024/04/01 00:58:22;;;;;;;7.97;2.20;;;16.40;83.90;;;;;;5044702;28;20036;-59
2024/04/01 01:00:48;;;;;;;9.50;2.42;;;16.40;83.90;;;;;;5044351;28;20017;-59
2024/04/01 01:03:14;;;;;;;8.50;2.78;;;16.40;84.00;;;;;;5044389;28;20463;-58
2024/04/01 01:05:39;;;;;;;9.52;3.38;;;16.40;84.00;;;;;;5044225;28;20033;-58
2024/04/01 01:08:06;;;;;;;8.95;2.72;;;16.30;84.10;;;;;;5044184;28;20095;-58
2024/04/01 01:10:32;;;;;;;9.95;2.75;;;16.30;84.10;;;;;;5044123;28;20025;-58
2024/04/01 01:12:58;;;;;;;11.90;2.78;;;16.30;84.20;;;;;;5044060;28;20155;-58
2024/04/01 01:15:24;;;;;;;11.52;2.70;;;16.30;84.50;;;;;;5044199;28;20033;-58
2024/04/01 01:17:50;;;;;;;8.30;2.65;;;16.30;84.50;;;;;;5044130;28;20036;-59
2024/04/01 01:20:16;;;;;;;7.35;2.75;;;16.30;84.40;;;;;;5027565;28;20033;-57
2024/04/01 01:22:42;;;;;;;8.25;2.70;;;16.30;84.40;;;;;;5045455;28;20030;-58
2024/04/01 01:25:08;;;;;;;10.63;2.53;;;16.20;84.40;;;;;;5043758;28;20033;-58
2024/04/01 01:27:37;;;;;;;6.57;2.58;;;16.20;84.40;;;;;;5043878;28;20025;-59
2024/04/01 01:30:04;;;;;;;12.52;2.30;;;16.20;84.40;;;;;;5045102;28;20596;-58
2024/04/01 01:32:33;;;;;;;8.07;2.28;;;16.20;84.50;;;;;;5043633;28;20506;-58
2024/04/01 01:34:58;;;;;;;8.80;2.72;;;16.20;84.50;;;;;;5043877;28;20033;-58
2024/04/01 01:37:24;;;;;;;13.50;2.83;;;16.20;84.60;;;;;;5027233;28;20484;-58
2024/04/01 01:39:50;;;;;;;9.88;2.05;;;16.10;84.60;;;;;;5043677;28;20044;-58
2024/04/01 01:42:15;;;;;;;12.32;2.90;;;16.10;84.60;;;;;;5044911;28;20041;-58
2024/04/01 01:44:41;;;;;;;8.68;2.58;;;16.10;84.70;;;;;;5043529;28;20148;-58
2024/04/01 01:47:06;;;;;;;11.40;3.10;;;16.10;84.90;;;;;;5043489;28;20052;-58
2024/04/01 01:49:32;;;;;;;9.63;2.78;;;16.00;84.90;;;;;;5043439;28;20314;-58
2024/04/01 01:51:58;;;;;;;8.10;2.50;;;16.10;84.90;;;;;;5044971;28;20045;-58
2024/04/01 01:54:23;;;;;;;8.30;2.72;;;16.00;84.90;;;;;;5043405;28;20029;-58
2024/04/01 01:56:49;;;;;;;10.57;2.45;;;16.00;84.90;;;;;;5027026;28;20030;-58
2024/04/01 01:59:14;;;;;;;8.45;2.90;;;16.00;84.90;;;;;;5043507;28;20029;-58
2024/04/01 02:01:40;;;;;;;10.30;2.47;;;16.00;85.00;;;;;;5043192;28;20029;-58
2024/04/01 02:04:05;;;;;;;6.15;2.33;;;16.00;85.10;;;;;;5043020;28;20449;-59
2024/04/01 02:06:31;;;;;;;9.13;2.58;;;15.90;85.00;;;;;;5042972;28;20033;-58
2024/04/01 02:08:57;;;;;;;6.18;2.38;;;15.90;85.20;;;;;;5044698;28;20021;-59
2024/04/01 02:11:23;;;;;;;9.20;2.53;;;15.90;85.20;;;;;;5043120;28;20494;-58
2024/04/01 02:13:49;;;;;;;6.50;2.20;;;15.90;85.30;;;;;;5043258;28;20052;-59
2024/04/01 02:16:14;;;;;;;7.60;2.22;;;15.90;85.40;;;;;;5043182;28;20033;-58
2024/04/01 02:18:40;;;;;;;4.53;2.10;;;15.90;85.50;;;;;;5042653;28;20444;-58
2024/04/01 02:21:05;;;;;;;7.43;2.40;;;15.90;86.00;;;;;;5042988;28;20030;-58
2024/04/01 02:23:34;;;;;;;5.35;2.50;;;15.90;85.30;;;;;;5042864;28;20036;-58
2024/04/01 02:26:00;;;;;;;13.00;3.00;;;15.80;85.30;;;;;;5042924;28;20025;-58
2024/04/01 02:28:26;;;;;;;6.05;2.00;;;15.90;85.30;;;;;;5026552;28;20029;-58
2024/04/01 02:30:52;;;;;;;6.45;1.95;;;15.80;85.30;;;;;;5042856;28;20045;-59
2024/04/01 02:33:17;;;;;;;9.52;2.45;;;15.80;85.40;;;;;;5042595;28;20083;-59
2024/04/01 02:35:43;;;;;;;13.93;2.88;;;15.80;85.40;;;;;;5042627;28;20029;-58
2024/04/01 02:38:08;;;;;;;7.97;2.30;;;15.80;85.60;;;;;;5042681;28;20029;-58
2024/04/01 02:40:34;;;;;;;9.35;2.55;;;15.70;85.50;;;;;;5042585;28;20094;-58
2024/04/01 02:42:59;;;;;;;8.35;2.60;;;15.70;85.60;;;;;;5042791;28;20041;-58
2024/04/01 02:45:28;;;;;;;7.25;2.30;;;15.70;85.60;;;;;;5042581;28;20029;-58
2024/04/01 02:47:54;;;;;;;5.18;2.05;;;15.70;85.60;;;;;;5044197;28;20038;-58
2024/04/01 02:50:19;;;;;;;5.68;2.20;;;15.70;85.60;;;;;;5042393;28;20040;-59
2024/04/01 02:52:48;;;;;;;10.40;2.65;;;15.70;85.80;;;;;;5043959;28;20029;-58
2024/04/01 02:55:13;;;;;;;7.50;2.30;;;15.70;85.80;;;;;;5043521;28;20035;-58
2024/04/01 02:57:39;;;;;;;7.85;2.38;;;15.60;85.70;;;;;;5043998;28;20037;-59
2024/04/01 03:00:07;;;;;;;7.78;1.92;;;15.70;85.80;;;;;;5025953;28;20032;-58
2024/04/01 03:02:35;;;;;;;7.70;2.28;;;15.60;85.80;;;;;;5042523;28;20045;-59
2024/04/01 03:05:02;;;;;;;11.07;2.22;;;15.70;85.80;;;;;;5043717;28;20029;-59
2024/04/01 03:07:27;;;;;;;8.25;2.58;;;15.60;85.90;;;;;;5043911;28;20542;-58
2024/04/01 03:09:56;;;;;;;11.57;2.40;;;15.60;86.20;;;;;;5042357;28;20022;-58
2024/04/01 03:12:22;;;;;;;8.32;2.15;;;15.60;86.20;;;;;;5042404;28;20045;-59
2024/04/01 03:14:47;;;;;;;7.78;2.30;;;15.60;86.00;;;;;;5043638;28;20029;-59
2024/04/01 03:17:16;;;;;;;7.32;1.90;;;15.60;86.10;;;;;;5042267;28;20033;-59
2024/04/01 03:19:41;;;;;;;9.27;2.72;;;15.60;86.10;;;;;;5042282;28;20029;-58
2024/04/01 03:22:07;;;;;;;10.23;2.38;;;15.50;86.20;;;;;;5043444;28;20444;-58
2024/04/01 03:24:32;;;;;;;7.38;2.53;;;15.50;86.30;;;;;;5041611;28;20101;-59
2024/04/01 03:26:58;;;;;;;6.18;2.13;;;15.50;86.30;;;;;;5043428;28;20029;-58
2024/04/01 03:29:24;;;;;;;7.55;1.77;;;15.50;86.40;;;;;;5026556;28;20022;-59
2024/04/01 03:31:50;;;;;;;5.63;1.92;;;15.50;86.40;;;;;;5046341;28;20026;-59
2024/04/01 03:34:15;;;;;;;7.35;2.30;;;15.50;86.40;;;;;;5047998;28;20034;-59
2024/04/01 03:36:42;;;;;;;4.93;2.05;;;15.50;86.50;;;;;;5048120;28;20026;-59
2024/04/01 03:39:08;;;;;;;7.97;2.08;;;15.50;86.60;;;;;;5046553;28;20056;-58
2024/04/01 03:41:34;;;;;;;8.00;2.47;;;15.50;86.60;;;;;;5030376;28;20037;-59
2024/04/01 03:44:00;;;;;;;3.40;1.67;;;15.50;86.80;;;;;;5047452;28;20029;-59
2024/04/01 03:46:26;;;;;;;7.13;2.47;;;15.40;86.80;;;;;;5048195;28;20052;-59
2024/04/01 03:48:51;;;;;;;7.10;2.22;;;15.40;86.80;;;;;;5060631;28;20021;-58
2024/04/01 03:51:17;;;;;;;6.50;2.00;;;15.40;86.90;;;;;;5066003;28;20071;-59
2024/04/01 03:53:43;;;;;;;7.20;2.65;;;15.40;86.90;;;;;;5067864;28;20021;-59
2024/04/01 03:56:09;;;;;;;6.18;2.30;;;15.30;86.90;;;;;;5066823;28;20128;-58
2024/04/01 03:58:36;;;;;;;7.30;2.55;;;15.30;87.20;;;;;;5047406;28;20040;-59
2024/04/01 04:01:01;;;;;;;4.45;1.95;;;15.30;87.30;;;;;;5046763;28;20033;-59
2024/04/01 04:03:27;;;;;;;7.57;2.10;;;15.30;87.50;;;;;;5046927;28;20033;-58
2024/04/01 04:05:53;;;;;;;6.30;2.00;;;15.30;87.70;;;;;;5045444;28;20068;-59
2024/04/01 04:08:18;;;;;;;8.18;2.45;;;15.30;88.30;;;;;;5045024;28;20113;-59
2024/04/01 04:10:47;;;;;;;7.07;2.22;;;15.20;87.80;;;;;;5045222;28;20132;-59
2024/04/01 04:13:12;;;;;;;9.90;2.15;;;15.20;87.80;;;;;;5028725;28;20053;-58
2024/04/01 04:15:38;;;;;;;5.90;2.08;;;15.20;88.00;;;;;;5045207;28;20030;-58
2024/04/01 04:18:04;;;;;;;10.80;2.10;;;15.20;88.10;;;;;;5045111;28;20074;-58
2024/04/01 04:20:30;;;;;;;10.88;2.28;;;15.20;88.20;;;;;;5045176;28;20064;-58
2024/04/01 04:22:55;;;;;;;4.13;1.88;;;15.20;88.40;;;;;;5045360;28;20518;-58
2024/04/01 04:25:22;;;;;;;6.88;1.92;;;15.20;89.00;;;;;;5046552;28;20581;-59
2024/04/01 04:27:50;;;;;;;11.57;1.85;;;15.20;89.20;;;;;;5028544;28;20026;-58
2024/04/01 04:30:15;;;;;;;4.65;1.40;;;15.20;89.50;;;;;;5046390;28;20029;-58
2024/04/01 04:32:41;;;;;;;5.53;2.03;;;15.10;89.70;;;;;;5045058;28;20089;-58
2024/04/01 04:35:13;;;;;;;6.00;1.40;;;15.10;90.00;;;;;;5044970;28;20548;-58
2024/04/01 04:37:39;;;;;;;3.38;1.50;;;15.10;90.00;;;;;;5045014;28;20051;-58
2024/04/01 04:40:05;;;;;;;3.47;1.20;;;15.00;90.10;;;;;;5044791;28;20040;-58
2024/04/01 04:42:31;;;;;;;6.10;1.13;;;15.00;90.10;;;;;;5045571;28;20037;-58
2024/04/01 04:44:57;;;;;;;5.15;1.13;;;15.00;90.10;;;;;;5044567;28;20045;-58
2024/04/01 04:47:22;;;;;;;2.60;1.00;;;15.00;90.10;;;;;;5046153;28;20085;-58
2024/04/01 04:49:48;;;;;;;2.55;0.77;;;15.00;90.20;;;;;;5044576;28;20491;-57
2024/04/01 04:52:13;;;;;;;2.75;0.98;;;14.90;90.20;;;;;;5044587;28;20033;-58
2024/04/01 04:54:39;;;;;;;2.70;0.90;;;14.90;90.20;;;;;;5044570;28;20030;-58
2024/04/01 04:57:05;;;;;;;3.05;0.70;;;14.90;90.30;;;;;;5045838;28;20037;-58
2024/04/01 04:59:33;;;;;;;4.13;1.05;;;14.90;90.30;;;;;;5027962;28;20021;-58
2024/04/01 05:02:06;;;;;;;3.45;0.80;;;14.90;90.40;;;;;;5044356;28;20033;-58
2024/04/01 05:04:33;;;;;;;2.20;0.80;;;14.80;90.30;;;;;;5028707;28;20032;-58
2024/04/01 05:06:59;;;;;;;1.08;0.50;;;14.80;90.30;;;;;;5045793;28;20047;-58
2024/04/01 05:09:25;;;;;;;2.38;0.80;;;14.80;90.30;;;;;;5044532;28;20091;-58
2024/04/01 05:11:50;;;;;;;2.47;0.65;;;14.80;90.30;;;;;;5044299;28;20049;-58
2024/04/01 05:14:16;;;;;;;5.60;0.88;;;14.80;90.20;;;;;;5045683;28;20076;-58
2024/04/01 05:16:41;;;;;;;1.55;0.70;;;14.80;90.20;;;;;;5044135;28;20387;-58
2024/04/01 05:19:07;;;;;;;2.50;0.57;;;14.80;90.30;;;;;;5045406;28;20453;-58
2024/04/01 05:21:33;;;;;;;3.00;0.70;;;14.70;90.30;;;;;;5045328;28;20049;-58
2024/04/01 05:23:59;;;;;;;3.78;1.00;;;14.70;90.20;;;;;;5045438;28;20035;-58
2024/04/01 05:26:24;;;;;;;5.43;1.10;;;14.70;90.20;;;;;;5043755;28;20089;-58
2024/04/01 05:28:50;;;;;;;8.30;0.80;;;14.70;90.20;;;;;;5045183;28;20049;-58
2024/04/01 05:31:15;;;;;;;3.50;0.65;;;14.70;90.20;;;;;;5027330;28;20064;-58
2024/04/01 05:33:41;;;;;;;3.28;0.68;;;14.70;90.20;;;;;;5027365;28;20021;-58
2024/04/01 05:36:07;;;;;;;7.95;1.35;;;14.70;90.20;;;;;;5044895;28;20437;-58
2024/04/01 05:38:32;;;;;;;5.13;0.90;;;14.70;90.20;;;;;;5027045;28;20033;-57
2024/04/01 05:40:58;;;;;;;11.30;1.92;;;14.60;90.20;;;;;;5043289;28;20041;-58
2024/04/01 05:43:24;;;;;;;9.88;1.20;;;14.60;90.20;;;;;;5043685;28;20037;-58
2024/04/01 05:45:49;;;;;;;29.15;2.72;;;14.60;90.30;;;;;;5044724;28;20044;-58
2024/04/01 05:48:17;;;;;;;11.60;1.67;;;14.60;90.30;;;;;;5045148;28;20045;-58
2024/04/01 05:50:48;;;;;;;7.90;1.60;;;14.60;90.30;;;;;;5043539;28;20013;-58
2024/04/01 05:53:13;;;;;;;23.90;2.92;;;14.60;90.20;;;;;;5042653;28;20026;-58
2024/04/01 05:55:40;;;;;;;27.45;4.32;;;14.60;90.20;;;;;;5043405;28;20103;-58
2024/04/01 05:58:06;;;;;;;29.70;4.07;;;14.60;90.20;;;;;;5043478;28;20087;-57
2024/04/01 06:00:32;;;;;;;27.42;3.95;;;14.60;90.20;;;;;;5050656;28;20033;-58
2024/04/01 06:02:58;;;;;;;44.58;6.03;;;14.50;90.10;;;;;;5060403;28;20064;-58
2024/04/01 06:05:23;;;;;;;51.60;6.85;;;14.50;90.10;;;;;;5046176;28;20088;-58
2024/04/01 06:07:49;;;;;;;61.13;7.65;;;14.50;90.10;;;;;;5063280;28;20022;-57
2024/04/01 06:10:15;;;;;;;43.45;6.43;;;14.50;90.10;;;;;;5063110;28;20029;-57
2024/04/01 06:12:40;;;;;;;53.05;6.07;;;14.40;90.00;;;;;;5057986;28;20091;-57
2024/04/01 06:15:06;;;;;;;50.78;6.40;;;14.40;90.00;;;;;;5061647;28;20136;-57
2024/04/01 06:17:31;;;;;;;33.38;4.97;;;14.40;90.00;;;;;;5061901;28;20498;-57
2024/04/01 06:19:57;;;;;;;44.17;5.28;;;14.40;90.00;;;;;;5063731;28;20036;-57
2024/04/01 06:22:23;;;;;;;44.13;5.57;;;14.40;90.00;;;;;;5061745;28;20036;-57
2024/04/01 06:24:50;;;;;;;37.25;5.00;;;14.40;90.00;;;;;;5062801;28;20067;-57
2024/04/01 06:27:15;;;;;;;35.22;5.72;;;14.30;90.00;;;;;;5046453;28;20096;-57
2024/04/01 06:29:41;;;;;;;39.05;4.45;;;14.30;90.00;;;;;;5063021;28;20032;-57
2024/04/01 06:32:07;;;;;;;45.95;4.88;;;14.30;90.00;;;;;;5064179;28;20025;-57
2024/04/01 06:34:32;;;;;;;27.83;4.50;;;14.30;90.00;;;;;;5064324;28;20060;-57
2024/04/01 06:36:58;;;;;;;24.55;3.72;;;14.30;90.00;;;;;;5064163;28;20029;-57
2024/04/01 06:39:24;;;;;;;28.38;4.18;;;14.20;89.90;;;;;;5061742;28;20043;-57
2024/04/01 06:41:50;;;;;;;31.33;3.90;;;14.20;89.90;;;;;;5062761;28;20044;-57
2024/04/01 06:44:16;;;;;;;29.83;4.32;;;14.20;89.80;;;;;;5062818;28;20085;-57
2024/04/01 06:46:41;;;;;;;21.70;3.45;;;14.20;89.70;;;;;;5062650;28;20056;-57
2024/04/01 06:49:07;;;;;;;19.33;3.33;;;14.20;89.50;;;;;;5062845;28;20025;-57
2024/04/01 06:51:32;;;;;;;17.50;3.42;;;14.20;89.50;;;;;;5064363;28;20146;-57
2024/04/01 06:53:58;;;;;;;14.95;2.63;;;14.20;89.40;;;;;;5064361;28;20025;-57
2024/04/01 06:56:24;;;;;;;24.33;3.40;;;14.20;89.40;;;;;;5045862;28;20041;-57
2024/04/01 06:58:50;;;;;;;13.23;2.50;;;14.20;89.40;;;;;;5062455;28;20044;-57
2024/04/01 07:01:15;;;;;;;11.90;2.13;;;14.20;89.40;;;;;;5046087;28;20040;-57
2024/04/01 07:03:41;;;;;;;15.18;2.60;;;14.10;89.30;;;;;;5045696;28;20033;-57
2024/04/01 07:06:07;;;;;;;14.48;1.95;;;14.10;89.20;;;;;;5065039;28;20036;-57
2024/04/01 07:08:32;;;;;;;10.88;2.30;;;14.10;89.20;;;;;;5089625;28;20025;-57
2024/04/01 07:10:58;;;;;;;13.93;2.75;;;14.10;89.20;;;;;;5064151;28;20021;-57
2024/04/01 07:13:23;;;;;;;17.27;2.50;;;14.10;89.20;;;;;;5079218;28;20048;-57
2024/04/01 07:15:49;;;;;;;17.77;3.00;;;14.00;89.30;;;;;;5085023;28;20079;-57
2024/04/01 07:18:15;;;;;;;9.18;1.70;;;14.00;89.20;;;;;;5087518;28;20154;-57
2024/04/01 07:20:41;;;;;;;12.32;2.13;;;14.00;89.20;;;;;;5075489;28;20472;-57
2024/04/01 07:23:07;;;;;;;8.43;1.73;;;14.00;89.10;;;;;;5053767;28;20132;-57
2024/04/01 07:25:32;;;;;;;9.05;1.70;;;14.00;89.10;;;;;;5070226;28;20180;-57
2024/04/01 07:27:58;;;;;;;9.07;1.48;;;14.00;88.90;;;;;;5087783;28;20025;-57
2024/04/01 07:30:24;;;;;;;6.15;1.58;;;14.00;88.90;;;;;;5055478;28;20029;-56
2024/04/01 07:32:50;;;;;;;4.63;1.38;;;14.00;88.80;;;;;;5067644;28;20036;-58
2024/04/01 07:35:15;;;;;;;4.68;1.30;;;13.90;88.70;;;;;;5065827;28;20066;-58
2024/04/01 07:37:41;;;;;;;7.82;1.35;;;13.90;88.80;;;;;;5065863;28;20049;-57
2024/04/01 07:40:07;;;;;;;5.75;1.23;;;13.90;88.80;;;;;;5065855;28;20142;-58
2024/04/01 07:42:33;;;;;;;6.85;1.10;;;13.90;88.70;;;;;;5064768;28;20037;-58
2024/04/01 07:44:59;;;;;;;2.97;0.90;;;13.90;88.60;;;;;;5066090;28;20037;-57
2024/04/01 07:47:25;;;;;;;7.53;1.13;;;13.90;88.50;;;;;;5066765;28;20025;-57
2024/04/01 07:49:51;;;;;;;4.20;1.10;;;13.90;88.50;;;;;;5065893;28;20027;-57
2024/04/01 07:52:16;;;;;;;4.75;1.20;;;13.90;88.40;;;;;;5064274;28;20318;-57
2024/04/01 07:54:42;;;;;;;4.95;1.10;;;13.90;89.10;;;;;;5049106;28;20025;-57
2024/04/01 07:57:08;;;;;;;2.90;0.90;;;13.90;88.40;;;;;;5065925;28;20101;-57
2024/04/01 07:59:34;;;;;;;3.10;0.70;;;13.80;88.30;;;;;;5065811;28;20029;-58
2024/04/01 08:02:03;;;;;;;4.47;0.90;;;13.90;88.20;;;;;;5063637;28;20032;-58
2024/04/01 08:04:29;;;;;;;3.35;0.75;;;13.80;88.20;;;;;;5067143;28;20025;-57
2024/04/01 08:06:55;;;;;;;2.97;1.08;;;13.80;88.20;;;;;;5064411;28;20028;-57
2024/04/01 08:09:21;;;;;;;10.98;1.45;;;13.80;88.20;;;;;;5066586;28;20115;-58
2024/04/01 08:11:47;;;;;;;11.05;1.50;;;13.80;88.30;;;;;;5060084;28;20106;-57
2024/04/01 08:14:12;;;;;;;31.13;2.75;;;13.80;88.40;;;;;;5065058;28;20029;-57
2024/04/01 08:16:38;;;;;;;11.85;1.65;;;13.80;88.50;;;;;;5063145;28;20025;-58
2024/04/01 08:19:04;;;;;;;52.25;4.65;;;13.80;88.30;;;;;;5066558;28;20166;-58
2024/04/01 08:21:29;;;;;;;32.10;3.40;;;13.80;88.30;;;;;;5066331;28;20025;-57
2024/04/01 08:23:55;;;;;;;65.30;5.88;;;13.90;88.30;;;;;;5064883;28;20431;-57
2024/04/01 08:26:20;;;;;;;25.95;3.05;;;13.80;88.20;;;;;;5031356;28;20043;-58
2024/04/01 08:28:46;;;;;;;39.33;3.53;;;13.80;88.00;;;;;;5065531;28;20315;-57
2024/04/01 08:31:12;;;;;;;79.45;6.80;;;13.80;88.40;;;;;;5062606;28;20112;-58
2024/04/01 08:33:37;;;;;;;212.38;19.52;;;13.90;88.40;;;;;;5048120;28;20100;-57
2024/04/01 08:36:04;;;;;;;97.15;9.40;;;13.90;88.10;;;;;;5064568;28;20059;-57
2024/04/01 08:38:30;;;;;;;57.15;5.18;;;13.80;88.00;;;;;;5048013;28;20028;-57
2024/04/01 08:41:16;;;;;;;32.25;4.78;;;13.80;87.90;;;;;;5066009;28;20037;-58
2024/04/01 08:43:53;;;;;;;;;;;13.90;87.50;;;;;;5064707;28;20037;-57
2024/04/01 08:46:19;;;;;;;72.72;6.93;;;13.90;87.70;;;;;;5052132;28;19912;-57
2024/04/01 08:48:47;;;;;;;104.20;11.32;;;13.90;88.00;;;;;;5063297;28;20029;-57
2024/04/01 08:51:13;;;;;;;119.40;11.65;;;13.80;87.90;;;;;;5063793;28;20021;-57
2024/04/01 08:53:43;;;;;;;102.20;9.27;;;13.90;88.20;;;;;;5062406;28;20040;-58
2024/04/01 08:56:09;;;;;;;119.25;11.45;;;13.90;88.20;;;;;;5063787;28;20040;-58
2024/04/01 08:58:35;;;;;;;143.98;12.27;;;13.90;87.80;;;;;;5061630;28;20052;-57
2024/04/01 09:01:00;;;;;;;148.35;14.02;;;13.90;88.50;;;;;;5059237;28;20025;-58
2024/04/01 09:03:26;;;;;;;174.02;16.73;;;13.90;88.00;;;;;;5045394;28;20580;-58
2024/04/01 09:05:54;;;;;;;223.68;20.25;;;13.90;88.80;;;;;;5060400;28;20034;-58
2024/04/01 09:08:20;;;;;;;159.13;17.08;;;13.90;88.10;;;;;;5070620;28;20036;-57
2024/04/01 09:10:46;;;;;;;166.63;17.50;;;14.00;87.70;;;;;;5059190;28;20047;-58
2024/04/01 09:13:13;;;;;;;155.48;16.80;;;13.90;88.30;;;;;;5041185;28;20039;-57
2024/04/01 09:15:40;;;;;;;164.20;15.95;;;14.00;88.10;;;;;;5063450;28;20037;-58
2024/04/01 09:18:11;;;;;;;158.07;15.82;;;14.00;88.20;;;;;;5063010;28;20082;-57
2024/04/01 09:20:38;;;;;;;164.45;15.90;;;14.00;88.20;;;;;;5046874;28;20037;-57
2024/04/01 09:23:03;;;;;;;156.93;16.88;;;14.00;88.50;;;;;;5046039;28;20084;-57
2024/04/01 09:25:29;;;;;;;217.05;20.95;;;14.10;88.50;;;;;;5026132;28;20036;-58
2024/04/01 09:27:55;;;;;;;251.73;23.60;;;14.10;87.90;;;;;;5054682;28;20080;-58
2024/04/01 09:30:20;;;;;;;239.18;20.77;;;14.10;88.20;;;;;;5062824;28;20059;-58
2024/04/01 09:32:46;;;;;;;204.15;20.30;;;14.10;87.90;;;;;;5061326;28;20159;-57
2024/04/01 09:35:11;;;;;;;202.82;23.50;;;14.10;88.20;;;;;;5060807;28;20041;-58
2024/04/01 09:37:37;;;;;;;293.58;25.92;;;14.10;88.70;;;;;;5064180;28;20116;-58
2024/04/01 09:40:03;;;;;;;251.20;24.33;;;14.10;88.30;;;;;;5061553;28;20085;-58
2024/04/01 09:42:29;;;;;;;207.82;22.88;;;14.20;88.40;;;;;;5062738;28;20070;-58
2024/04/01 09:44:55;;;;;;;281.80;30.05;;;14.20;87.90;;;;;;5062445;28;20199;-57
2024/04/01 09:47:20;;;;;;;271.63;25.50;;;14.20;87.40;;;;;;5060273;28;20037;-57
2024/04/01 09:49:46;;;;;;;297.80;29.00;;;14.20;87.20;;;;;;5037215;28;20033;-57
2024/04/01 09:52:12;;;;;;;311.42;30.50;;;14.20;87.30;;;;;;5033416;28;20156;-58
2024/04/01 09:54:38;;;;;;;303.70;28.73;;;14.30;87.40;;;;;;5044155;28;20028;-58
2024/04/01 09:57:07;;;;;;;370.90;40.53;;;14.30;87.10;;;;;;5025388;28;20037;-58
2024/04/01 09:59:54;;;;;;;244.45;27.05;;;14.30;87.00;;;;;;5061509;28;20025;-58
2024/04/01 10:02:49;;;;;;;261.05;27.70;;;14.30;87.20;;;;;;5040564;28;20022;-58
2024/04/01 10:05:37;;;;;;;238.23;25.05;;;14.30;86.60;;;;;;5058081;28;20095;-58
2024/04/01 10:08:05;;;;;;;274.10;26.52;;;14.30;86.30;;;;;;5059518;28;20096;-57
2024/04/01 10:10:40;;;;;;;292.42;28.60;;;14.30;86.80;;;;;;5063581;28;20032;-58
2024/04/01 10:13:43;;;;;;;229.27;25.27;;;14.30;86.90;;;;;;5059587;28;20132;-58
2024/04/01 10:16:27;;;;;;;291.08;30.75;;;14.30;86.70;;;;;;5051225;28;20044;-58
2024/04/01 10:18:59;;;;;;;237.00;26.23;;;14.30;86.90;;;;;;5063738;28;20029;-58
2024/04/01 10:21:31;;;;;;;250.75;26.77;;;14.30;86.60;;;;;;5063335;28;20021;-58
2024/04/01 10:23:56;;;;;;;347.38;34.17;;;14.30;86.80;;;;;;5063551;28;20035;-58
2024/04/01 10:26:36;;;;;;;194.48;21.90;;;14.40;86.50;;;;;;5063670;28;20085;-58
2024/04/01 10:29:31;;;;;;;269.02;29.70;;;14.40;86.10;;;;;;5062127;28;20106;-58
2024/04/01 10:32:21;;;;;;;295.45;28.40;;;14.40;86.10;;;;;;5045522;28;20053;-58
2024/04/01 10:35:35;;;;;;;269.70;27.63;;;14.40;85.90;;;;;;5042622;28;20074;-58
2024/04/01 10:38:53;;;;;;;223.10;24.05;;;14.40;86.20;;;;;;5042807;28;20096;-58
2024/04/01 10:41:25;;;;;;;220.68;25.58;;;14.50;86.60;;;;;;5054162;28;20053;-58
2024/04/01 10:44:10;;;;;;;181.23;21.92;;;14.50;86.20;;;;;;5060566;28;20025;-58
2024/04/01 10:47:17;;;;;;;231.77;27.75;;;14.50;86.00;;;;;;5054529;28;20025;-58
2024/04/01 10:50:16;;;;;;;196.70;21.88;;;14.50;86.90;;;;;;5017086;28;20046;-58
2024/04/01 10:53:06;;;;;;;439.35;45.60;;;14.60;85.90;;;;;;5052938;28;20032;-58
2024/04/01 10:55:53;;;;;;;286.17;30.13;;;14.60;85.60;;;;;;5061225;28;20040;-58
2024/04/01 10:58:32;;;;;;;233.60;24.52;;;14.50;85.60;;;;;;5061466;28;20032;-59
2024/04/01 11:01:04;;;;;;;239.43;22.48;;;14.50;85.70;;;;;;5061208;28;20036;-58
2024/04/01 11:04:08;;;;;;;217.55;23.63;;;14.60;85.50;;;;;;5061587;28;20333;-58
2024/04/01 11:06:38;;;;;;;227.40;23.20;;;14.60;85.40;;;;;;5061237;28;20040;-58
2024/04/01 11:09:21;;;;;;;272.85;26.50;;;14.60;85.40;;;;;;5061220;28;20103;-57
2024/04/01 11:12:09;;;;;;;264.00;28.25;;;14.60;85.30;;;;;;5061973;28;20036;-58
2024/04/01 11:14:35;;;;;;;269.02;27.05;;;14.60;85.30;;;;;;5060258;28;20025;-58
2024/04/01 11:17:01;;;;;;;228.15;22.92;;;14.60;85.10;;;;;;5052944;28;20025;-58
2024/04/01 11:19:39;;;;;;;251.07;23.65;;;14.60;84.90;;;;;;5060350;28;20464;-58
2024/04/01 11:22:04;;;;;;;214.73;24.25;;;14.60;84.80;;;;;;5061217;28;20024;-58
2024/04/01 11:24:54;;;;;;;202.65;20.42;;;14.60;85.00;;;;;;5060589;28;20064;-58
2024/04/01 11:27:51;;;;;;;220.90;25.13;;;14.70;85.00;;;;;;5041106;28;20087;-58
2024/04/01 11:30:26;;;;;;;200.30;23.50;;;14.70;85.00;;;;;;5056915;28;20029;-58
2024/04/01 11:33:06;;;;;;;192.87;22.07;;;14.70;84.80;;;;;;5052913;28;20048;-58
2024/04/01 11:35:38;;;;;;;189.77;18.02;;;14.70;85.00;;;;;;5058521;28;20029;-57
2024/04/01 11:38:11;;;;;;;218.82;21.70;;;14.70;84.30;;;;;;5056582;28;20106;-58
2024/04/01 11:40:36;;;;;;;240.98;23.98;;;14.70;84.30;;;;;;5037745;28;20104;-58
2024/04/01 11:43:06;;;;;;;170.60;19.13;;;14.60;84.20;;;;;;5039973;28;20113;-58
2024/04/01 11:45:33;;;;;;;211.18;21.20;;;14.60;83.60;;;;;;5044618;28;20029;-58
2024/04/01 11:47:59;;;;;;;199.88;23.45;;;14.70;83.90;;;;;;5044636;28;20016;-58
2024/04/01 11:50:25;;;;;;;206.13;19.67;;;14.70;83.90;;;;;;5044143;28;20036;-58
2024/04/01 11:53:04;;;;;;;225.73;24.42;;;14.70;84.50;;;;;;5064868;28;20084;-58
2024/04/01 11:55:29;;;;;;;221.15;21.88;;;14.70;84.00;;;;;;5064569;28;20060;-58
2024/04/01 11:58:15;;;;;;;363.63;36.85;;;14.70;84.00;;;;;;5063103;28;20028;-58
2024/04/01 12:00:51;;;;;;;;;;;14.70;83.90;;;;;;5060250;28;20047;-58
2024/04/01 12:03:17;;;;;;;268.73;25.38;;;14.70;83.80;;;;;;5068482;28;19963;-58
2024/04/01 12:05:55;;;;;;;472.23;47.15;;;14.80;83.80;;;;;;5051852;28;20088;-58
2024/04/01 12:08:24;;;;;;;243.63;28.90;;;14.80;84.00;;;;;;5064633;28;20029;-58
2024/04/01 12:10:50;;;;;;;184.35;22.17;;;14.80;84.10;;;;;;5060893;28;20021;-58
2024/04/01 12:13:16;;;;;;;233.85;27.45;;;14.80;83.80;;;;;;5055577;28;20123;-58
2024/04/01 12:15:43;;;;;;;189.38;22.27;;;14.80;83.70;;;;;;5049507;28;20036;-58
2024/04/01 12:18:10;;;;;;;462.35;46.95;;;14.90;83.30;;;;;;5047082;28;20170;-58
2024/04/01 12:20:39;;;;;;;280.50;28.40;;;14.90;83.40;;;;;;5046953;28;20044;-58
2024/04/01 12:23:06;;;;;;;256.13;28.58;;;15.00;83.70;;;;;;5063497;28;20021;-59
2024/04/01 12:25:32;;;;;;;289.70;31.88;;;15.00;83.60;;;;;;5047237;28;20028;-58
2024/04/01 12:28:08;;;;;;;297.55;31.75;;;15.00;83.40;;;;;;5053637;28;20025;-58
2024/04/01 12:30:34;;;;;;;;;;;15.10;83.80;;;;;;5029626;28;20053;-58
2024/04/01 12:32:59;;;;;;;;;;;15.10;83.60;;;;;;5080730;28;19909;-58
2024/04/01 12:35:25;;;;;;;287.65;30.08;;;15.10;83.60;;;;;;5063380;28;19912;-58
2024/04/01 12:37:50;;;;;;;323.40;30.02;;;15.10;83.70;;;;;;5047053;28;20032;-58
2024/04/01 12:40:16;;;;;;;284.02;30.33;;;15.20;83.70;;;;;;5030301;28;20029;-58